sensor_id;sensor_type;location;lat;lon;timestamp;P1;durP1;ratioP1;P2;durP2;ratioP2
10387;SDS011;5240;51.128;4.566;2022-10-03T00:04:35;14.98;;;8.18;;
10387;SDS011;5240;51.128;4.566;2022-10-03T00:07:13;14.23;;;7.75;;
10387;SDS011;5240;51.128;4.566;2022-10-03T00:09:53;18.35;;;8.23;;
10387;SDS011;5240;51.128;4.566;2022-10-03T00:12:35;16.48;;;7.60;;
10387;SDS011;5240;51.128;4.566;2022-10-03T00:15:12;13.40;;;7.43;;
10387;SDS011;5240;51.128;4.566;2022-10-03T00:17:49;14.18;;;7.60;;
10387;SDS011;5240;51.128;4.566;2022-10-03T00:20:32;17.48;;;7.80;;
10387;SDS011;5240;51.128;4.566;2022-10-03T00:23:22;20.42;;;7.80;;
10387;SDS011;5240;51.128;4.566;2022-10-03T00:26:02;16.95;;;7.68;;
10387;SDS011;5240;51.128;4.566;2022-10-03T00:28:49;17.75;;;8.30;;
10387;SDS011;5240;51.128;4.566;2022-10-03T00:31:39;15.23;;;8.35;;
10387;SDS011;5240;51.128;4.566;2022-10-03T00:34:14;19.35;;;9.65;;
10387;SDS011;5240;51.128;4.566;2022-10-03T00:36:49;20.77;;;9.13;;
10387;SDS011;5240;51.128;4.566;2022-10-03T00:39:39;14.43;;;8.48;;
10387;SDS011;5240;51.128;4.566;2022-10-03T00:45:27;19.80;;;9.40;;
10387;SDS011;5240;51.128;4.566;2022-10-03T00:48:18;15.27;;;9.88;;
10387;SDS011;5240;51.128;4.566;2022-10-03T00:51:16;18.77;;;10.63;;
10387;SDS011;5240;51.128;4.566;2022-10-03T00:53:54;24.73;;;13.55;;
10387;SDS011;5240;51.128;4.566;2022-10-03T00:56:34;28.75;;;16.08;;
10387;SDS011;5240;51.128;4.566;2022-10-03T00:59:20;31.52;;;16.60;;
10387;SDS011;5240;51.128;4.566;2022-10-03T01:01:58;25.02;;;16.30;;
10387;SDS011;5240;51.128;4.566;2022-10-03T01:04:52;25.38;;;15.15;;
10387;SDS011;5240;51.128;4.566;2022-10-03T01:07:29;25.48;;;14.70;;
10387;SDS011;5240;51.128;4.566;2022-10-03T01:10:08;25.83;;;15.65;;
10387;SDS011;5240;51.128;4.566;2022-10-03T01:12:55;30.80;;;14.23;;
10387;SDS011;5240;51.128;4.566;2022-10-03T01:15:41;25.90;;;13.30;;
10387;SDS011;5240;51.128;4.566;2022-10-03T01:18:23;20.27;;;12.60;;
10387;SDS011;5240;51.128;4.566;2022-10-03T01:21:03;23.63;;;12.25;;
10387;SDS011;5240;51.128;4.566;2022-10-03T01:26:51;21.20;;;11.43;;
10387;SDS011;5240;51.128;4.566;2022-10-03T01:29:23;19.08;;;11.13;;
10387;SDS011;5240;51.128;4.566;2022-10-03T01:32:16;22.02;;;11.65;;
10387;SDS011;5240;51.128;4.566;2022-10-03T01:34:51;18.02;;;11.27;;
10387;SDS011;5240;51.128;4.566;2022-10-03T01:37:26;23.83;;;12.27;;
10387;SDS011;5240;51.128;4.566;2022-10-03T01:39:59;15.98;;;11.40;;
10387;SDS011;5240;51.128;4.566;2022-10-03T01:42:38;21.48;;;11.40;;
10387;SDS011;5240;51.128;4.566;2022-10-03T01:45:22;17.13;;;12.35;;
10387;SDS011;5240;51.128;4.566;2022-10-03T01:47:57;22.23;;;12.13;;
10387;SDS011;5240;51.128;4.566;2022-10-03T01:50:29;21.85;;;12.00;;
10387;SDS011;5240;51.128;4.566;2022-10-03T01:53:02;19.85;;;11.23;;
10387;SDS011;5240;51.128;4.566;2022-10-03T01:55:36;22.05;;;11.55;;
10387;SDS011;5240;51.128;4.566;2022-10-03T01:58:18;16.65;;;10.95;;
10387;SDS011;5240;51.128;4.566;2022-10-03T02:00:55;18.50;;;11.07;;
10387;SDS011;5240;51.128;4.566;2022-10-03T02:03:33;16.15;;;11.43;;
10387;SDS011;5240;51.128;4.566;2022-10-03T02:06:04;17.83;;;10.50;;
10387;SDS011;5240;51.128;4.566;2022-10-03T02:08:43;19.77;;;10.93;;
10387;SDS011;5240;51.128;4.566;2022-10-03T02:11:22;16.92;;;11.20;;
10387;SDS011;5240;51.128;4.566;2022-10-03T02:13:57;17.63;;;10.82;;
10387;SDS011;5240;51.128;4.566;2022-10-03T02:16:34;22.05;;;11.20;;
10387;SDS011;5240;51.128;4.566;2022-10-03T02:19:10;15.82;;;10.70;;
10387;SDS011;5240;51.128;4.566;2022-10-03T02:21:46;15.88;;;10.85;;
10387;SDS011;5240;51.128;4.566;2022-10-03T02:24:23;15.90;;;10.82;;
10387;SDS011;5240;51.128;4.566;2022-10-03T02:30:39;17.25;;;11.38;;
10387;SDS011;5240;51.128;4.566;2022-10-03T02:33:35;21.45;;;11.88;;
10387;SDS011;5240;51.128;4.566;2022-10-03T02:36:24;18.52;;;11.35;;
10387;SDS011;5240;51.128;4.566;2022-10-03T02:39:30;19.75;;;11.90;;
10387;SDS011;5240;51.128;4.566;2022-10-03T02:45:43;19.15;;;12.43;;
10387;SDS011;5240;51.128;4.566;2022-10-03T02:52:04;15.23;;;10.85;;
10387;SDS011;5240;51.128;4.566;2022-10-03T03:01:15;16.23;;;11.57;;
10387;SDS011;5240;51.128;4.566;2022-10-03T03:04:21;15.65;;;11.02;;
10387;SDS011;5240;51.128;4.566;2022-10-03T03:07:26;16.05;;;12.02;;
10387;SDS011;5240;51.128;4.566;2022-10-03T03:19:15;18.08;;;11.68;;
10387;SDS011;5240;51.128;4.566;2022-10-03T03:21:57;17.40;;;10.95;;
10387;SDS011;5240;51.128;4.566;2022-10-03T03:24:46;20.63;;;11.05;;
10387;SDS011;5240;51.128;4.566;2022-10-03T03:27:36;18.65;;;11.77;;
10387;SDS011;5240;51.128;4.566;2022-10-03T03:30:11;17.10;;;11.27;;
10387;SDS011;5240;51.128;4.566;2022-10-03T03:32:46;17.13;;;12.07;;
10387;SDS011;5240;51.128;4.566;2022-10-03T03:35:22;18.88;;;10.98;;
10387;SDS011;5240;51.128;4.566;2022-10-03T03:37:56;14.75;;;11.00;;
10387;SDS011;5240;51.128;4.566;2022-10-03T03:40:38;14.30;;;10.43;;
10387;SDS011;5240;51.128;4.566;2022-10-03T03:43:17;15.20;;;10.63;;
10387;SDS011;5240;51.128;4.566;2022-10-03T03:45:57;15.38;;;10.43;;
10387;SDS011;5240;51.128;4.566;2022-10-03T03:51:28;15.15;;;10.23;;
10387;SDS011;5240;51.128;4.566;2022-10-03T03:54:12;16.98;;;11.00;;
10387;SDS011;5240;51.128;4.566;2022-10-03T03:57:11;17.73;;;10.48;;
10387;SDS011;5240;51.128;4.566;2022-10-03T03:59:52;15.75;;;10.65;;
10387;SDS011;5240;51.128;4.566;2022-10-03T04:02:35;17.20;;;10.32;;
10387;SDS011;5240;51.128;4.566;2022-10-03T04:05:39;16.75;;;11.15;;
10387;SDS011;5240;51.128;4.566;2022-10-03T04:08:23;15.80;;;10.73;;
10387;SDS011;5240;51.128;4.566;2022-10-03T04:11:01;18.67;;;10.02;;
10387;SDS011;5240;51.128;4.566;2022-10-03T04:13:49;17.00;;;10.57;;
10387;SDS011;5240;51.128;4.566;2022-10-03T04:19:53;19.05;;;11.82;;
10387;SDS011;5240;51.128;4.566;2022-10-03T04:22:39;20.55;;;12.30;;
10387;SDS011;5240;51.128;4.566;2022-10-03T04:25:27;20.40;;;12.23;;
10387;SDS011;5240;51.128;4.566;2022-10-03T04:28:07;30.25;;;22.20;;
10387;SDS011;5240;51.128;4.566;2022-10-03T04:31:02;19.90;;;15.60;;
10387;SDS011;5240;51.128;4.566;2022-10-03T04:33:42;21.33;;;14.75;;
10387;SDS011;5240;51.128;4.566;2022-10-03T04:39:29;18.65;;;11.57;;
10387;SDS011;5240;51.128;4.566;2022-10-03T04:42:06;18.23;;;11.07;;
10387;SDS011;5240;51.128;4.566;2022-10-03T04:44:53;18.25;;;10.80;;
10387;SDS011;5240;51.128;4.566;2022-10-03T04:47:32;14.50;;;11.95;;
10387;SDS011;5240;51.128;4.566;2022-10-03T04:50:12;16.17;;;11.35;;
10387;SDS011;5240;51.128;4.566;2022-10-03T04:52:50;20.65;;;12.88;;
10387;SDS011;5240;51.128;4.566;2022-10-03T04:55:31;19.85;;;11.77;;
10387;SDS011;5240;51.128;4.566;2022-10-03T04:58:13;15.90;;;11.40;;
10387;SDS011;5240;51.128;4.566;2022-10-03T05:00:49;19.33;;;11.98;;
10387;SDS011;5240;51.128;4.566;2022-10-03T05:03:27;15.52;;;11.52;;
10387;SDS011;5240;51.128;4.566;2022-10-03T05:06:09;13.38;;;10.95;;
10387;SDS011;5240;51.128;4.566;2022-10-03T05:08:51;18.92;;;11.73;;
10387;SDS011;5240;51.128;4.566;2022-10-03T05:11:25;16.70;;;11.07;;
10387;SDS011;5240;51.128;4.566;2022-10-03T05:14:07;15.25;;;10.98;;
10387;SDS011;5240;51.128;4.566;2022-10-03T05:16:38;18.75;;;10.93;;
10387;SDS011;5240;51.128;4.566;2022-10-03T05:22:07;21.88;;;11.70;;
10387;SDS011;5240;51.128;4.566;2022-10-03T05:24:45;17.25;;;11.43;;
10387;SDS011;5240;51.128;4.566;2022-10-03T05:27:18;15.50;;;10.80;;
10387;SDS011;5240;51.128;4.566;2022-10-03T05:29:50;17.25;;;10.85;;
10387;SDS011;5240;51.128;4.566;2022-10-03T05:32:26;17.65;;;11.27;;
10387;SDS011;5240;51.128;4.566;2022-10-03T05:35:15;16.60;;;11.35;;
10387;SDS011;5240;51.128;4.566;2022-10-03T05:37:58;24.33;;;11.38;;
10387;SDS011;5240;51.128;4.566;2022-10-03T05:40:46;15.13;;;10.82;;
10387;SDS011;5240;51.128;4.566;2022-10-03T05:43:27;19.52;;;11.25;;
10387;SDS011;5240;51.128;4.566;2022-10-03T05:46:09;19.92;;;11.23;;
10387;SDS011;5240;51.128;4.566;2022-10-03T05:48:46;17.33;;;11.25;;
10387;SDS011;5240;51.128;4.566;2022-10-03T05:51:24;17.40;;;11.10;;
10387;SDS011;5240;51.128;4.566;2022-10-03T06:00:04;14.43;;;10.65;;
10387;SDS011;5240;51.128;4.566;2022-10-03T06:05:50;16.95;;;10.30;;
10387;SDS011;5240;51.128;4.566;2022-10-03T06:12:06;16.52;;;11.27;;
10387;SDS011;5240;51.128;4.566;2022-10-03T06:20:31;18.17;;;11.10;;
10387;SDS011;5240;51.128;4.566;2022-10-03T06:23:30;17.80;;;11.02;;
10387;SDS011;5240;51.128;4.566;2022-10-03T06:36:02;17.33;;;10.82;;
10387;SDS011;5240;51.128;4.566;2022-10-03T06:42:07;17.00;;;10.05;;
10387;SDS011;5240;51.128;4.566;2022-10-03T06:48:12;19.63;;;10.18;;
10387;SDS011;5240;51.128;4.566;2022-10-03T06:50:58;16.27;;;10.10;;
10387;SDS011;5240;51.128;4.566;2022-10-03T06:54:01;18.20;;;9.82;;
10387;SDS011;5240;51.128;4.566;2022-10-03T06:56:57;20.70;;;9.93;;
10387;SDS011;5240;51.128;4.566;2022-10-03T07:08:30;18.38;;;10.77;;
10387;SDS011;5240;51.128;4.566;2022-10-03T07:11:24;12.60;;;10.30;;
10387;SDS011;5240;51.128;4.566;2022-10-03T07:17:20;22.33;;;12.13;;
10387;SDS011;5240;51.128;4.566;2022-10-03T07:20:20;20.88;;;11.10;;
10387;SDS011;5240;51.128;4.566;2022-10-03T07:26:23;18.70;;;11.40;;
10387;SDS011;5240;51.128;4.566;2022-10-03T07:29:40;18.92;;;10.75;;
10387;SDS011;5240;51.128;4.566;2022-10-03T07:32:30;18.95;;;11.15;;
10387;SDS011;5240;51.128;4.566;2022-10-03T07:35:41;23.13;;;11.70;;
10387;SDS011;5240;51.128;4.566;2022-10-03T07:38:42;31.60;;;13.10;;
10387;SDS011;5240;51.128;4.566;2022-10-03T07:41:31;23.15;;;10.57;;
10387;SDS011;5240;51.128;4.566;2022-10-03T07:44:36;17.58;;;10.98;;
10387;SDS011;5240;51.128;4.566;2022-10-03T07:50:42;18.88;;;10.48;;
10387;SDS011;5240;51.128;4.566;2022-10-03T07:53:23;14.98;;;9.10;;
10387;SDS011;5240;51.128;4.566;2022-10-03T07:56:17;15.43;;;8.82;;
10387;SDS011;5240;51.128;4.566;2022-10-03T07:59:07;25.55;;;9.30;;
10387;SDS011;5240;51.128;4.566;2022-10-03T08:02:11;15.10;;;7.88;;
10387;SDS011;5240;51.128;4.566;2022-10-03T08:05:05;15.60;;;7.68;;
10387;SDS011;5240;51.128;4.566;2022-10-03T08:08:01;14.68;;;8.35;;
10387;SDS011;5240;51.128;4.566;2022-10-03T08:10:57;15.73;;;7.80;;
10387;SDS011;5240;51.128;4.566;2022-10-03T08:13:53;14.02;;;7.68;;
10387;SDS011;5240;51.128;4.566;2022-10-03T08:16:43;12.32;;;7.68;;
10387;SDS011;5240;51.128;4.566;2022-10-03T08:19:46;14.85;;;8.13;;
10387;SDS011;5240;51.128;4.566;2022-10-03T08:22:31;17.05;;;9.15;;
10387;SDS011;5240;51.128;4.566;2022-10-03T08:25:17;16.95;;;7.78;;
10387;SDS011;5240;51.128;4.566;2022-10-03T08:34:21;15.40;;;6.72;;
10387;SDS011;5240;51.128;4.566;2022-10-03T08:37:32;14.48;;;7.10;;
10387;SDS011;5240;51.128;4.566;2022-10-03T08:43:41;12.45;;;5.95;;
10387;SDS011;5240;51.128;4.566;2022-10-03T08:46:36;15.52;;;6.00;;
10387;SDS011;5240;51.128;4.566;2022-10-03T08:49:36;15.60;;;6.30;;
10387;SDS011;5240;51.128;4.566;2022-10-03T08:52:31;12.23;;;6.30;;
10387;SDS011;5240;51.128;4.566;2022-10-03T08:55:17;15.70;;;6.68;;
10387;SDS011;5240;51.128;4.566;2022-10-03T09:01:03;20.63;;;6.70;;
10387;SDS011;5240;51.128;4.566;2022-10-03T09:06:55;16.35;;;6.53;;
10387;SDS011;5240;51.128;4.566;2022-10-03T09:19:15;13.10;;;7.00;;
10387;SDS011;5240;51.128;4.566;2022-10-03T09:22:13;11.45;;;6.28;;
10387;SDS011;5240;51.128;4.566;2022-10-03T09:25:10;14.57;;;6.65;;
10387;SDS011;5240;51.128;4.566;2022-10-03T09:30:49;14.45;;;6.25;;
10387;SDS011;5240;51.128;4.566;2022-10-03T09:43:05;13.40;;;6.40;;
10387;SDS011;5240;51.128;4.566;2022-10-03T09:49:17;13.65;;;6.10;;
10387;SDS011;5240;51.128;4.566;2022-10-03T09:52:08;19.13;;;6.32;;
10387;SDS011;5240;51.128;4.566;2022-10-03T09:58:09;13.48;;;4.80;;
10387;SDS011;5240;51.128;4.566;2022-10-03T10:01:03;12.65;;;5.22;;
10387;SDS011;5240;51.128;4.566;2022-10-03T10:03:46;11.13;;;4.70;;
10387;SDS011;5240;51.128;4.566;2022-10-03T10:06:54;11.00;;;3.60;;
10387;SDS011;5240;51.128;4.566;2022-10-03T10:09:58;14.93;;;4.78;;
10387;SDS011;5240;51.128;4.566;2022-10-03T10:16:16;10.63;;;4.72;;
10387;SDS011;5240;51.128;4.566;2022-10-03T10:19:10;9.82;;;3.70;;
10387;SDS011;5240;51.128;4.566;2022-10-03T10:22:02;13.63;;;4.15;;
10387;SDS011;5240;51.128;4.566;2022-10-03T10:24:48;10.55;;;3.38;;
10387;SDS011;5240;51.128;4.566;2022-10-03T10:30:45;10.40;;;4.18;;
10387;SDS011;5240;51.128;4.566;2022-10-03T10:46:17;8.00;;;3.03;;
10387;SDS011;5240;51.128;4.566;2022-10-03T10:49:19;9.98;;;3.40;;
10387;SDS011;5240;51.128;4.566;2022-10-03T10:52:12;8.95;;;3.10;;
10387;SDS011;5240;51.128;4.566;2022-10-03T10:55:24;9.93;;;3.80;;
10387;SDS011;5240;51.128;4.566;2022-10-03T11:01:24;13.30;;;3.47;;
10387;SDS011;5240;51.128;4.566;2022-10-03T11:04:19;6.68;;;2.50;;
10387;SDS011;5240;51.128;4.566;2022-10-03T11:07:16;7.90;;;2.50;;
10387;SDS011;5240;51.128;4.566;2022-10-03T11:10:24;6.10;;;2.50;;
10387;SDS011;5240;51.128;4.566;2022-10-03T11:13:08;4.75;;;2.17;;
10387;SDS011;5240;51.128;4.566;2022-10-03T11:22:36;7.25;;;2.53;;
10387;SDS011;5240;51.128;4.566;2022-10-03T11:25:30;8.20;;;2.22;;
10387;SDS011;5240;51.128;4.566;2022-10-03T11:28:33;7.90;;;2.60;;
10387;SDS011;5240;51.128;4.566;2022-10-03T11:37:38;9.50;;;2.40;;
10387;SDS011;5240;51.128;4.566;2022-10-03T11:40:13;8.23;;;2.38;;
10387;SDS011;5240;51.128;4.566;2022-10-03T11:42:54;6.18;;;2.30;;
10387;SDS011;5240;51.128;4.566;2022-10-03T11:45:45;5.30;;;2.42;;
10387;SDS011;5240;51.128;4.566;2022-10-03T11:48:30;7.40;;;2.25;;
10387;SDS011;5240;51.128;4.566;2022-10-03T11:51:06;7.53;;;2.30;;
10387;SDS011;5240;51.128;4.566;2022-10-03T11:53:43;6.88;;;2.30;;
10387;SDS011;5240;51.128;4.566;2022-10-03T12:02:07;9.82;;;2.63;;
10387;SDS011;5240;51.128;4.566;2022-10-03T12:04:44;8.68;;;2.67;;
10387;SDS011;5240;51.128;4.566;2022-10-03T12:07:17;8.27;;;2.55;;
10387;SDS011;5240;51.128;4.566;2022-10-03T12:10:15;6.72;;;2.30;;
10387;SDS011;5240;51.128;4.566;2022-10-03T12:12:49;9.18;;;2.55;;
10387;SDS011;5240;51.128;4.566;2022-10-03T12:15:26;10.85;;;2.70;;
10387;SDS011;5240;51.128;4.566;2022-10-03T12:18:01;9.82;;;2.20;;
10387;SDS011;5240;51.128;4.566;2022-10-03T12:23:51;9.38;;;2.42;;
10387;SDS011;5240;51.128;4.566;2022-10-03T12:26:29;6.88;;;2.25;;
10387;SDS011;5240;51.128;4.566;2022-10-03T12:29:08;5.38;;;2.00;;
10387;SDS011;5240;51.128;4.566;2022-10-03T12:31:40;6.30;;;2.05;;
10387;SDS011;5240;51.128;4.566;2022-10-03T12:34:17;9.57;;;2.35;;
10387;SDS011;5240;51.128;4.566;2022-10-03T12:36:59;6.22;;;2.08;;
10387;SDS011;5240;51.128;4.566;2022-10-03T12:39:49;6.38;;;2.08;;
10387;SDS011;5240;51.128;4.566;2022-10-03T12:42:27;9.75;;;2.33;;
10387;SDS011;5240;51.128;4.566;2022-10-03T12:44:59;5.78;;;2.00;;
10387;SDS011;5240;51.128;4.566;2022-10-03T12:47:40;9.10;;;3.90;;
10387;SDS011;5240;51.128;4.566;2022-10-03T12:50:25;5.32;;;2.15;;
10387;SDS011;5240;51.128;4.566;2022-10-03T12:53:07;5.90;;;1.90;;
10387;SDS011;5240;51.128;4.566;2022-10-03T12:58:43;7.68;;;2.25;;
10387;SDS011;5240;51.128;4.566;2022-10-03T13:01:20;9.68;;;2.80;;
10387;SDS011;5240;51.128;4.566;2022-10-03T13:03:54;5.53;;;2.40;;
10387;SDS011;5240;51.128;4.566;2022-10-03T13:06:34;9.65;;;2.05;;
10387;SDS011;5240;51.128;4.566;2022-10-03T13:09:21;7.68;;;2.33;;
10387;SDS011;5240;51.128;4.566;2022-10-03T13:11:58;7.70;;;2.53;;
10387;SDS011;5240;51.128;4.566;2022-10-03T13:17:44;7.20;;;2.63;;
10387;SDS011;5240;51.128;4.566;2022-10-03T13:20:20;7.47;;;2.33;;
10387;SDS011;5240;51.128;4.566;2022-10-03T13:22:58;12.95;;;3.50;;
10387;SDS011;5240;51.128;4.566;2022-10-03T13:25:31;9.13;;;3.00;;
10387;SDS011;5240;51.128;4.566;2022-10-03T13:28:11;7.38;;;2.80;;
10387;SDS011;5240;51.128;4.566;2022-10-03T13:30:44;12.70;;;3.15;;
10387;SDS011;5240;51.128;4.566;2022-10-03T13:33:20;6.80;;;2.30;;
10387;SDS011;5240;51.128;4.566;2022-10-03T13:35:52;8.48;;;2.72;;
10387;SDS011;5240;51.128;4.566;2022-10-03T13:38:44;8.55;;;3.25;;
10387;SDS011;5240;51.128;4.566;2022-10-03T13:41:28;12.95;;;3.78;;
10387;SDS011;5240;51.128;4.566;2022-10-03T13:44:02;7.80;;;2.58;;
10387;SDS011;5240;51.128;4.566;2022-10-03T13:46:36;10.95;;;3.28;;
10387;SDS011;5240;51.128;4.566;2022-10-03T13:49:20;10.27;;;2.60;;
10387;SDS011;5240;51.128;4.566;2022-10-03T13:51:58;6.40;;;2.17;;
10387;SDS011;5240;51.128;4.566;2022-10-03T13:57:36;10.43;;;2.80;;
10387;SDS011;5240;51.128;4.566;2022-10-03T14:00:09;8.40;;;2.45;;
10387;SDS011;5240;51.128;4.566;2022-10-03T14:02:46;5.32;;;2.10;;
10387;SDS011;5240;51.128;4.566;2022-10-03T14:05:26;5.28;;;2.15;;
10387;SDS011;5240;51.128;4.566;2022-10-03T14:08:14;9.07;;;2.55;;
10387;SDS011;5240;51.128;4.566;2022-10-03T14:13:51;9.52;;;2.40;;
10387;SDS011;5240;51.128;4.566;2022-10-03T14:16:42;6.47;;;2.20;;
10387;SDS011;5240;51.128;4.566;2022-10-03T14:19:16;9.10;;;2.35;;
10387;SDS011;5240;51.128;4.566;2022-10-03T14:22:06;6.15;;;2.22;;
10387;SDS011;5240;51.128;4.566;2022-10-03T14:24:52;7.05;;;2.15;;
10387;SDS011;5240;51.128;4.566;2022-10-03T14:27:35;5.32;;;2.05;;
10387;SDS011;5240;51.128;4.566;2022-10-03T14:30:10;5.97;;;2.30;;
10387;SDS011;5240;51.128;4.566;2022-10-03T14:32:43;8.77;;;2.40;;
10387;SDS011;5240;51.128;4.566;2022-10-03T14:35:24;8.82;;;2.33;;
10387;SDS011;5240;51.128;4.566;2022-10-03T14:38:03;9.60;;;2.53;;
10387;SDS011;5240;51.128;4.566;2022-10-03T14:40:50;7.13;;;2.10;;
10387;SDS011;5240;51.128;4.566;2022-10-03T14:43:30;9.07;;;2.20;;
10387;SDS011;5240;51.128;4.566;2022-10-03T14:46:04;9.40;;;2.33;;
10387;SDS011;5240;51.128;4.566;2022-10-03T14:48:33;8.00;;;2.28;;
10387;SDS011;5240;51.128;4.566;2022-10-03T14:51:05;7.78;;;2.60;;
10387;SDS011;5240;51.128;4.566;2022-10-03T14:53:39;6.07;;;2.22;;
10387;SDS011;5240;51.128;4.566;2022-10-03T14:56:14;8.25;;;2.30;;
10387;SDS011;5240;51.128;4.566;2022-10-03T14:58:47;8.23;;;2.47;;
10387;SDS011;5240;51.128;4.566;2022-10-03T15:01:16;8.68;;;2.40;;
10387;SDS011;5240;51.128;4.566;2022-10-03T15:03:51;6.13;;;2.45;;
10387;SDS011;5240;51.128;4.566;2022-10-03T15:09:19;8.27;;;2.53;;
10387;SDS011;5240;51.128;4.566;2022-10-03T15:11:51;5.82;;;2.08;;
10387;SDS011;5240;51.128;4.566;2022-10-03T15:14:24;8.07;;;2.47;;
10387;SDS011;5240;51.128;4.566;2022-10-03T15:16:55;7.88;;;2.42;;
10387;SDS011;5240;51.128;4.566;2022-10-03T15:19:26;7.20;;;2.45;;
10387;SDS011;5240;51.128;4.566;2022-10-03T15:21:57;7.50;;;2.60;;
10387;SDS011;5240;51.128;4.566;2022-10-03T15:24:31;7.78;;;2.70;;
10387;SDS011;5240;51.128;4.566;2022-10-03T15:27:02;9.88;;;2.35;;
10387;SDS011;5240;51.128;4.566;2022-10-03T15:29:33;10.25;;;2.97;;
10387;SDS011;5240;51.128;4.566;2022-10-03T15:32:03;6.85;;;2.25;;
10387;SDS011;5240;51.128;4.566;2022-10-03T15:34:42;10.02;;;2.55;;
10387;SDS011;5240;51.128;4.566;2022-10-03T15:37:14;8.75;;;2.50;;
10387;SDS011;5240;51.128;4.566;2022-10-03T15:39:43;5.25;;;2.08;;
10387;SDS011;5240;51.128;4.566;2022-10-03T15:42:18;6.00;;;2.33;;
10387;SDS011;5240;51.128;4.566;2022-10-03T15:44:48;6.95;;;2.30;;
10387;SDS011;5240;51.128;4.566;2022-10-03T15:47:18;6.78;;;2.25;;
10387;SDS011;5240;51.128;4.566;2022-10-03T15:49:48;9.02;;;2.40;;
10387;SDS011;5240;51.128;4.566;2022-10-03T15:52:20;6.72;;;2.45;;
10387;SDS011;5240;51.128;4.566;2022-10-03T15:54:52;9.18;;;2.83;;
10387;SDS011;5240;51.128;4.566;2022-10-03T15:57:25;8.45;;;2.53;;
10387;SDS011;5240;51.128;4.566;2022-10-03T15:59:55;6.20;;;2.10;;
10387;SDS011;5240;51.128;4.566;2022-10-03T16:02:25;6.32;;;2.45;;
10387;SDS011;5240;51.128;4.566;2022-10-03T16:04:57;8.00;;;2.38;;
10387;SDS011;5240;51.128;4.566;2022-10-03T16:07:27;7.07;;;2.30;;
10387;SDS011;5240;51.128;4.566;2022-10-03T16:10:05;8.43;;;2.40;;
10387;SDS011;5240;51.128;4.566;2022-10-03T16:13:00;6.95;;;2.35;;
10387;SDS011;5240;51.128;4.566;2022-10-03T16:15:41;15.73;;;2.75;;
10387;SDS011;5240;51.128;4.566;2022-10-03T16:18:50;7.57;;;2.45;;
10387;SDS011;5240;51.128;4.566;2022-10-03T16:21:29;8.68;;;2.30;;
10387;SDS011;5240;51.128;4.566;2022-10-03T16:24:14;5.60;;;2.15;;
10387;SDS011;5240;51.128;4.566;2022-10-03T16:26:47;9.90;;;2.72;;
10387;SDS011;5240;51.128;4.566;2022-10-03T16:29:19;9.27;;;2.80;;
10387;SDS011;5240;51.128;4.566;2022-10-03T16:31:51;6.55;;;2.70;;
10387;SDS011;5240;51.128;4.566;2022-10-03T16:34:24;5.63;;;2.72;;
10387;SDS011;5240;51.128;4.566;2022-10-03T16:36:55;6.75;;;2.85;;
10387;SDS011;5240;51.128;4.566;2022-10-03T16:39:23;5.95;;;2.67;;
10387;SDS011;5240;51.128;4.566;2022-10-03T16:41:53;7.28;;;2.97;;
10387;SDS011;5240;51.128;4.566;2022-10-03T16:44:26;7.30;;;3.35;;
10387;SDS011;5240;51.128;4.566;2022-10-03T16:46:59;8.25;;;3.97;;
10387;SDS011;5240;51.128;4.566;2022-10-03T16:49:37;9.70;;;3.33;;
10387;SDS011;5240;51.128;4.566;2022-10-03T16:52:28;7.30;;;3.03;;
10387;SDS011;5240;51.128;4.566;2022-10-03T16:54:59;11.30;;;3.40;;
10387;SDS011;5240;51.128;4.566;2022-10-03T16:57:30;8.90;;;2.92;;
10387;SDS011;5240;51.128;4.566;2022-10-03T17:00:11;10.02;;;3.80;;
10387;SDS011;5240;51.128;4.566;2022-10-03T17:02:40;10.25;;;3.50;;
10387;SDS011;5240;51.128;4.566;2022-10-03T17:05:08;10.95;;;3.65;;
10387;SDS011;5240;51.128;4.566;2022-10-03T17:07:38;10.18;;;3.78;;
10387;SDS011;5240;51.128;4.566;2022-10-03T17:13:02;8.50;;;3.70;;
10387;SDS011;5240;51.128;4.566;2022-10-03T17:15:40;7.05;;;3.40;;
10387;SDS011;5240;51.128;4.566;2022-10-03T17:18:15;15.98;;;4.07;;
10387;SDS011;5240;51.128;4.566;2022-10-03T17:20:48;10.77;;;3.78;;
10387;SDS011;5240;51.128;4.566;2022-10-03T17:23:21;8.93;;;3.80;;
10387;SDS011;5240;51.128;4.566;2022-10-03T17:25:59;12.52;;;4.25;;
10387;SDS011;5240;51.128;4.566;2022-10-03T17:28:36;9.18;;;4.00;;
10387;SDS011;5240;51.128;4.566;2022-10-03T17:31:11;9.68;;;4.20;;
10387;SDS011;5240;51.128;4.566;2022-10-03T17:33:54;9.02;;;3.97;;
10387;SDS011;5240;51.128;4.566;2022-10-03T17:36:50;8.18;;;3.95;;
10387;SDS011;5240;51.128;4.566;2022-10-03T17:39:39;7.80;;;3.78;;
10387;SDS011;5240;51.128;4.566;2022-10-03T17:42:16;8.82;;;3.90;;
10387;SDS011;5240;51.128;4.566;2022-10-03T17:44:56;9.27;;;4.63;;
10387;SDS011;5240;51.128;4.566;2022-10-03T17:47:39;12.18;;;4.55;;
10387;SDS011;5240;51.128;4.566;2022-10-03T17:50:17;12.45;;;4.32;;
10387;SDS011;5240;51.128;4.566;2022-10-03T17:52:50;9.65;;;4.38;;
10387;SDS011;5240;51.128;4.566;2022-10-03T17:55:20;8.50;;;4.43;;
10387;SDS011;5240;51.128;4.566;2022-10-03T17:57:51;10.80;;;4.10;;
10387;SDS011;5240;51.128;4.566;2022-10-03T18:00:21;8.45;;;4.50;;
10387;SDS011;5240;51.128;4.566;2022-10-03T18:02:53;9.82;;;4.10;;
10387;SDS011;5240;51.128;4.566;2022-10-03T18:05:25;9.90;;;4.20;;
10387;SDS011;5240;51.128;4.566;2022-10-03T18:07:59;9.25;;;4.25;;
10387;SDS011;5240;51.128;4.566;2022-10-03T18:10:30;11.02;;;4.20;;
10387;SDS011;5240;51.128;4.566;2022-10-03T18:13:00;7.30;;;4.18;;
10387;SDS011;5240;51.128;4.566;2022-10-03T18:15:45;11.10;;;4.30;;
10387;SDS011;5240;51.128;4.566;2022-10-03T18:21:36;11.80;;;5.65;;
10387;SDS011;5240;51.128;4.566;2022-10-03T18:24:19;13.75;;;7.05;;
10387;SDS011;5240;51.128;4.566;2022-10-03T18:27:04;9.35;;;5.35;;
10387;SDS011;5240;51.128;4.566;2022-10-03T18:29:47;10.60;;;5.57;;
10387;SDS011;5240;51.128;4.566;2022-10-03T18:32:21;10.15;;;5.57;;
10387;SDS011;5240;51.128;4.566;2022-10-03T18:34:57;8.70;;;5.05;;
10387;SDS011;5240;51.128;4.566;2022-10-03T18:37:54;12.30;;;5.18;;
10387;SDS011;5240;51.128;4.566;2022-10-03T18:40:29;11.55;;;5.38;;
10387;SDS011;5240;51.128;4.566;2022-10-03T18:42:59;11.18;;;5.82;;
10387;SDS011;5240;51.128;4.566;2022-10-03T18:45:30;10.88;;;6.75;;
10387;SDS011;5240;51.128;4.566;2022-10-03T18:48:04;15.10;;;7.95;;
10387;SDS011;5240;51.128;4.566;2022-10-03T18:50:42;13.13;;;5.30;;
10387;SDS011;5240;51.128;4.566;2022-10-03T18:53:16;11.70;;;5.50;;
10387;SDS011;5240;51.128;4.566;2022-10-03T18:55:53;9.05;;;4.97;;
10387;SDS011;5240;51.128;4.566;2022-10-03T18:58:24;12.90;;;5.60;;
10387;SDS011;5240;51.128;4.566;2022-10-03T19:00:57;14.07;;;5.20;;
10387;SDS011;5240;51.128;4.566;2022-10-03T19:03:30;13.60;;;5.32;;
10387;SDS011;5240;51.128;4.566;2022-10-03T19:06:04;11.10;;;5.00;;
10387;SDS011;5240;51.128;4.566;2022-10-03T19:08:36;10.90;;;5.40;;
10387;SDS011;5240;51.128;4.566;2022-10-03T19:11:09;10.15;;;5.13;;
10387;SDS011;5240;51.128;4.566;2022-10-03T19:13:43;9.77;;;4.72;;
10387;SDS011;5240;51.128;4.566;2022-10-03T19:16:23;12.48;;;8.63;;
10387;SDS011;5240;51.128;4.566;2022-10-03T19:19:05;11.48;;;4.57;;
10387;SDS011;5240;51.128;4.566;2022-10-03T19:21:38;13.10;;;5.75;;
10387;SDS011;5240;51.128;4.566;2022-10-03T19:24:10;9.77;;;5.35;;
10387;SDS011;5240;51.128;4.566;2022-10-03T19:26:45;10.02;;;5.32;;
10387;SDS011;5240;51.128;4.566;2022-10-03T19:29:17;12.00;;;5.15;;
10387;SDS011;5240;51.128;4.566;2022-10-03T19:31:51;12.68;;;5.00;;
10387;SDS011;5240;51.128;4.566;2022-10-03T19:34:27;8.90;;;5.28;;
10387;SDS011;5240;51.128;4.566;2022-10-03T19:37:04;9.45;;;5.78;;
10387;SDS011;5240;51.128;4.566;2022-10-03T19:39:33;13.98;;;5.18;;
10387;SDS011;5240;51.128;4.566;2022-10-03T19:42:10;12.00;;;5.53;;
10387;SDS011;5240;51.128;4.566;2022-10-03T19:44:49;15.48;;;5.38;;